Time;durP1;ratioP1;P1;durP2;ratioP2;P2;SDS_P1;SDS_P2;PMS_P1;PMS_P2;Temp;Humidity;BMP_temperature;BMP_pressure;BME280_temperature;BME280_humidity;BME280_pressure;Samples;Min_cycle;Max_cycle;Signal;HPM_P1;HPM_P2
2023/05/04 00:00:24;;;;;;;;;5.50;5.50;;;;;;;;5026313;28;9405;-92
2023/05/04 00:02:52;;;;;;;;;4.00;4.00;;;;;;;;5031486;28;9408;-93
2023/05/04 00:05:19;;;;;;;;;9.00;5.75;;;;;;;;5034872;28;9486;-92
2023/05/04 00:07:48;;;;;;;;;5.00;5.00;;;;;;;;5037877;28;9498;-92
2023/05/04 00:10:16;;;;;;;;;5.00;5.00;;;;;;;;5038346;28;9324;-92
2023/05/04 00:12:45;;;;;;;;;6.00;6.00;;;;;;;;5036752;28;9412;-89
2023/05/04 00:15:12;;;;;;;;;5.00;5.00;;;;;;;;5034671;28;9250;-90
2023/05/04 00:17:39;;;;;;;;;6.00;6.00;;;;;;;;5033667;28;9277;-91
2023/05/04 00:20:08;;;;;;;;;6.33;4.67;;;;;;;;5032301;28;9442;-91
2023/05/04 00:22:35;;;;;;;;;7.00;5.67;;;;;;;;5030910;28;9423;-90
2023/05/04 00:25:06;;;;;;;;;5.00;5.00;;;;;;;;5031701;28;9430;-90
2023/05/04 00:27:33;;;;;;;;;4.67;4.67;;;;;;;;5033575;28;9324;-91
2023/05/04 00:30:01;;;;;;;;;7.00;7.00;;;;;;;;5033261;28;9405;-92
2023/05/04 00:32:31;;;;;;;;;4.00;4.00;;;;;;;;5028683;28;9270;-91
2023/05/04 00:35:00;;;;;;;;;6.00;6.00;;;;;;;;5057418;28;9493;-90
2023/05/04 00:37:30;;;;;;;;;4.00;4.00;;;;;;;;5058309;28;9538;-91
2023/05/04 00:39:58;;;;;;;;;6.00;6.00;;;;;;;;5029406;28;9398;-92
2023/05/04 00:42:26;;;;;;;;;5.67;5.67;;;;;;;;5035964;28;9450;-91
2023/05/04 00:44:54;;;;;;;;;5.67;5.67;;;;;;;;5044054;28;9359;-94
2023/05/04 00:47:21;;;;;;;;;5.00;5.00;;;;;;;;5051789;28;9298;-90
2023/05/04 00:49:49;;;;;;;;;5.75;5.50;;;;;;;;5049585;28;9365;-90
2023/05/04 00:52:17;;;;;;;;;4.75;4.75;;;;;;;;5051182;28;9468;-91
2023/05/04 00:54:46;;;;;;;;;6.25;6.25;;;;;;;;5034225;28;9551;-93
2023/05/04 00:57:14;;;;;;;;;8.50;6.25;;;;;;;;5052315;28;9413;-94
2023/05/04 00:59:43;;;;;;;;;6.00;6.00;;;;;;;;5052032;28;9447;-93
2023/05/04 01:02:10;;;;;;;;;5.75;5.75;;;;;;;;5034801;28;9496;-92
2023/05/04 01:04:37;;;;;;;;;6.75;6.00;;;;;;;;5035539;28;9508;-91
2023/05/04 01:07:13;;;;;;;;;6.00;6.00;;;;;;;;5039113;28;9576;-91
2023/05/04 01:09:45;;;;;;;;;6.25;6.25;;;;;;;;5034975;28;9551;-90
2023/05/04 01:12:15;;;;;;;;;4.00;4.00;;;;;;;;5033236;28;9557;-89
2023/05/04 01:14:47;;;;;;;;;4.33;4.33;;;;;;;;5032525;28;9310;-91
2023/05/04 01:17:14;;;;;;;;;5.75;5.75;;;;;;;;5033061;28;9372;-90
2023/05/04 01:19:42;;;;;;;;;5.00;5.00;;;;;;;;5033225;28;9512;-91
2023/05/04 01:22:10;;;;;;;;;6.33;5.00;;;;;;;;5034515;28;9401;-91
2023/05/04 01:24:38;;;;;;;;;5.67;5.67;;;;;;;;5033139;28;9546;-91
2023/05/04 01:27:09;;;;;;;;;6.00;5.00;;;;;;;;5032999;28;9522;-92
2023/05/04 01:29:45;;;;;;;;;5.33;3.67;;;;;;;;5031165;28;9541;-88
2023/05/04 01:32:13;;;;;;;;;5.00;5.00;;;;;;;;5031740;28;9334;-90
2023/05/04 01:34:41;;;;;;;;;4.75;4.75;;;;;;;;5017341;28;9522;-90
2023/05/04 01:37:10;;;;;;;;;6.50;5.50;;;;;;;;5037589;28;10229;-92
2023/05/04 01:39:38;;;;;;;;;5.25;5.25;;;;;;;;5033122;28;9548;-89
2023/05/04 01:42:06;;;;;;;;;6.00;6.00;;;;;;;;5032139;28;9476;-90
2023/05/04 01:44:33;;;;;;;;;6.25;6.25;;;;;;;;5031404;28;9517;-90
2023/05/04 01:47:01;;;;;;;;;5.00;5.00;;;;;;;;5031757;28;9658;-90
2023/05/04 01:49:31;;;;;;;;;7.75;6.00;;;;;;;;5031869;28;9556;-89
2023/05/04 01:51:58;;;;;;;;;6.25;6.25;;;;;;;;5031632;28;9735;-90
2023/05/04 01:54:27;;;;;;;;;7.50;6.00;;;;;;;;5030733;28;9624;-89
2023/05/04 01:56:54;;;;;;;;;7.00;5.00;;;;;;;;5031628;28;9561;-90
2023/05/04 01:59:22;;;;;;;;;7.00;7.00;;;;;;;;5031848;28;9794;-90
2023/05/04 02:01:49;;;;;;;;;6.50;6.50;;;;;;;;5031006;28;9722;-90
2023/05/04 02:04:16;;;;;;;;;9.50;8.00;;;;;;;;5032489;28;9609;-90
2023/05/04 02:06:44;;;;;;;;;6.00;6.00;;;;;;;;5032733;28;10061;-92
2023/05/04 02:09:11;;;;;;;;;6.00;6.00;;;;;;;;5032412;28;9688;-91
2023/05/04 02:11:40;;;;;;;;;7.00;7.00;;;;;;;;5033664;28;9645;-92
2023/05/04 02:14:07;;;;;;;;;6.00;6.00;;;;;;;;5032740;28;9838;-92
2023/05/04 02:16:35;;;;;;;;;7.50;5.75;;;;;;;;5032406;28;9774;-93
2023/05/04 02:19:02;;;;;;;;;6.00;6.00;;;;;;;;5030641;28;10698;-92
2023/05/04 02:21:29;;;;;;;;;5.00;5.00;;;;;;;;5031215;28;9711;-93
2023/05/04 02:23:58;;;;;;;;;7.25;5.75;;;;;;;;5030959;28;9815;-90
2023/05/04 02:26:25;;;;;;;;;5.50;4.25;;;;;;;;5024549;28;9834;-91
2023/05/04 02:28:54;;;;;;;;;7.00;7.00;;;;;;;;5029875;28;9636;-90
2023/05/04 02:31:21;;;;;;;;;6.75;5.75;;;;;;;;5029802;28;9729;-91
2023/05/04 02:33:50;;;;;;;;;10.00;6.75;;;;;;;;5030704;28;9755;-92
2023/05/04 02:36:17;;;;;;;;;7.00;5.00;;;;;;;;5031477;28;9687;-91
2023/05/04 02:38:45;;;;;;;;;6.00;6.00;;;;;;;;5036034;28;10458;-92
2023/05/04 02:41:12;;;;;;;;;6.00;6.00;;;;;;;;5017572;28;9887;-92
2023/05/04 02:43:39;;;;;;;;;7.00;7.00;;;;;;;;5032417;28;9787;-92
2023/05/04 02:46:08;;;;;;;;;6.00;6.00;;;;;;;;5031015;28;9848;-92
2023/05/04 02:48:35;;;;;;;;;5.00;5.00;;;;;;;;5029994;28;10535;-91
2023/05/04 02:51:03;;;;;;;;;4.50;4.50;;;;;;;;5030236;28;9776;-91
2023/05/04 02:53:30;;;;;;;;;6.50;6.50;;;;;;;;5030055;28;9914;-91
2023/05/04 02:55:58;;;;;;;;;7.00;7.00;;;;;;;;5030001;28;9851;-90
2023/05/04 02:58:25;;;;;;;;;7.25;6.00;;;;;;;;5030490;28;10035;-91
2023/05/04 03:00:54;;;;;;;;;6.00;6.00;;;;;;;;5015036;28;9879;-90
2023/05/04 03:03:23;;;;;;;;;5.25;5.25;;;;;;;;5030193;28;9960;-90
2023/05/04 03:05:51;;;;;;;;;6.00;6.00;;;;;;;;5033140;28;9994;-91
2023/05/04 03:08:18;;;;;;;;;6.00;6.00;;;;;;;;5037146;28;10049;-92
2023/05/04 03:10:45;;;;;;;;;6.50;6.00;;;;;;;;5033733;28;9996;-91
2023/05/04 03:13:13;;;;;;;;;6.00;6.00;;;;;;;;5031794;28;10322;-91
2023/05/04 03:15:40;;;;;;;;;9.50;6.50;;;;;;;;5031951;28;10113;-92
2023/05/04 03:18:08;;;;;;;;;6.00;6.00;;;;;;;;5019772;28;10031;-91
2023/05/04 03:20:36;;;;;;;;;5.00;5.00;;;;;;;;5011648;28;10052;-90
2023/05/04 03:23:04;;;;;;;;;6.75;6.75;;;;;;;;5011040;28;9953;-90
2023/05/04 03:25:32;;;;;;;;;11.50;8.50;;;;;;;;5016622;28;10037;-91
2023/05/04 03:27:59;;;;;;;;;7.50;6.75;;;;;;;;5017502;28;9871;-91
2023/05/04 03:30:27;;;;;;;;;7.75;6.25;;;;;;;;5028389;28;10106;-92
2023/05/04 03:32:54;;;;;;;;;6.00;6.00;;;;;;;;5029975;28;10108;-92
2023/05/04 03:35:22;;;;;;;;;5.00;5.00;;;;;;;;5031336;28;10112;-91
2023/05/04 03:37:50;;;;;;;;;5.00;5.00;;;;;;;;5036544;28;10124;-90
2023/05/04 03:40:21;;;;;;;;;8.00;6.50;;;;;;;;5032744;28;10105;-90
2023/05/04 03:42:49;;;;;;;;;4.00;4.00;;;;;;;;5030380;28;10210;-90
2023/05/04 03:45:16;;;;;;;;;5.75;5.75;;;;;;;;5030704;28;10192;-91
2023/05/04 03:47:43;;;;;;;;;4.50;4.50;;;;;;;;5017120;28;10186;-93
2023/05/04 03:50:12;;;;;;;;;9.00;8.25;;;;;;;;5020371;28;10098;-90
2023/05/04 03:52:39;;;;;;;;;7.25;7.25;;;;;;;;5031364;28;10209;-89
2023/05/04 03:55:10;;;;;;;;;6.25;6.25;;;;;;;;5028812;28;10240;-91
2023/05/04 03:57:37;;;;;;;;;8.50;6.75;;;;;;;;5031206;28;10174;-91
2023/05/04 04:00:06;;;;;;;;;4.00;4.00;;;;;;;;5035744;28;10145;-90
2023/05/04 04:02:34;;;;;;;;;5.75;5.75;;;;;;;;5035828;28;10213;-88
2023/05/04 04:05:03;;;;;;;;;11.25;7.00;;;;;;;;5040995;28;10175;-79
2023/05/04 04:07:31;;;;;;;;;7.00;7.00;;;;;;;;5036691;28;10202;-79
2023/05/04 04:09:59;;;;;;;;;7.50;6.00;;;;;;;;5032650;28;10183;-80
2023/05/04 04:12:27;;;;;;;;;5.25;5.25;;;;;;;;5029046;28;10187;-78
2023/05/04 04:14:55;;;;;;;;;7.25;6.00;;;;;;;;5031293;28;10135;-81
2023/05/04 04:17:22;;;;;;;;;7.50;7.50;;;;;;;;5031086;28;10296;-83
2023/05/04 04:19:49;;;;;;;;;3.00;3.00;;;;;;;;5031292;28;10116;-80
2023/05/04 04:22:16;;;;;;;;;4.50;4.00;;;;;;;;5030786;28;10309;-79
2023/05/04 04:24:44;;;;;;;;;7.50;6.50;;;;;;;;5030432;28;10157;-81
2023/05/04 04:27:11;;;;;;;;;8.00;6.75;;;;;;;;5041151;28;10250;-82
2023/05/04 04:29:40;;;;;;;;;7.25;7.25;;;;;;;;5030995;28;10368;-85
2023/05/04 04:32:07;;;;;;;;;8.50;6.75;;;;;;;;5030682;28;10116;-79
2023/05/04 04:34:35;;;;;;;;;4.50;4.50;;;;;;;;5030726;28;10309;-77
2023/05/04 04:37:02;;;;;;;;;10.50;8.50;;;;;;;;5031411;28;10248;-78
2023/05/04 04:39:29;;;;;;;;;6.00;5.75;;;;;;;;5030285;28;10394;-78
2023/05/04 04:41:56;;;;;;;;;6.25;6.25;;;;;;;;5031092;28;10056;-78
2023/05/04 04:44:23;;;;;;;;;7.75;6.00;;;;;;;;5030056;28;10151;-78
2023/05/04 04:46:52;;;;;;;;;9.75;7.00;;;;;;;;5029908;28;10365;-80
2023/05/04 04:49:19;;;;;;;;;6.00;6.00;;;;;;;;5029517;28;10111;-81
2023/05/04 04:51:47;;;;;;;;;5.75;5.75;;;;;;;;5029806;28;10205;-80
2023/05/04 04:54:15;;;;;;;;;7.00;7.00;;;;;;;;5029125;28;10283;-83
2023/05/04 04:56:43;;;;;;;;;8.00;6.50;;;;;;;;5031633;28;10220;-83
2023/05/04 04:59:11;;;;;;;;;7.25;6.50;;;;;;;;5030874;28;10333;-79
2023/05/04 05:01:40;;;;;;;;;6.25;6.25;;;;;;;;5030898;28;10918;-81
2023/05/04 05:04:09;;;;;;;;;7.00;7.00;;;;;;;;5031442;28;10390;-78
2023/05/04 05:06:36;;;;;;;;;6.25;5.25;;;;;;;;5031343;28;10456;-79
2023/05/04 05:09:04;;;;;;;;;8.25;6.25;;;;;;;;5031287;28;10284;-83
2023/05/04 05:11:32;;;;;;;;;7.00;7.00;;;;;;;;5030178;28;10276;-83
2023/05/04 05:13:59;;;;;;;;;7.00;7.00;;;;;;;;5028710;28;10309;-79
2023/05/04 05:16:27;;;;;;;;;7.50;7.50;;;;;;;;5030577;28;10263;-80
2023/05/04 05:18:54;;;;;;;;;7.00;7.00;;;;;;;;5028752;28;10340;-81
2023/05/04 05:21:22;;;;;;;;;8.00;6.00;;;;;;;;5030540;28;10327;-80
2023/05/04 05:23:50;;;;;;;;;7.00;7.00;;;;;;;;5029957;28;10335;-77
2023/05/04 05:26:17;;;;;;;;;7.25;7.25;;;;;;;;5030265;28;10006;-81
2023/05/04 05:28:45;;;;;;;;;5.00;5.00;;;;;;;;5029156;28;10290;-81
2023/05/04 05:31:12;;;;;;;;;7.00;7.00;;;;;;;;5030199;28;10133;-82
2023/05/04 05:33:40;;;;;;;;;10.50;8.00;;;;;;;;5030929;28;10126;-81
2023/05/04 05:36:08;;;;;;;;;9.00;7.25;;;;;;;;5031717;28;10175;-82
2023/05/04 05:38:36;;;;;;;;;8.50;7.75;;;;;;;;5032091;28;10245;-82
2023/05/04 05:41:04;;;;;;;;;6.00;6.00;;;;;;;;5031955;28;10220;-88
2023/05/04 05:43:32;;;;;;;;;8.75;7.00;;;;;;;;5033753;28;10068;-83
2023/05/04 05:45:59;;;;;;;;;8.00;6.50;;;;;;;;5033371;28;10199;-82
2023/05/04 05:48:26;;;;;;;;;6.75;6.75;;;;;;;;5032791;28;10155;-82
2023/05/04 05:50:54;;;;;;;;;7.50;6.75;;;;;;;;5033712;28;10183;-81
2023/05/04 05:53:21;;;;;;;;;11.00;11.00;;;;;;;;5032019;28;10889;-80
2023/05/04 05:55:49;;;;;;;;;6.50;6.50;;;;;;;;5029962;28;10081;-83
2023/05/04 05:58:17;;;;;;;;;9.00;7.00;;;;;;;;5029878;28;10833;-84
2023/05/04 06:00:45;;;;;;;;;6.50;6.50;;;;;;;;5028664;28;10022;-82
2023/05/04 06:03:12;;;;;;;;;6.25;6.25;;;;;;;;5029409;28;10166;-82
2023/05/04 06:05:39;;;;;;;;;12.50;8.00;;;;;;;;5029118;28;10038;-80
2023/05/04 06:08:06;;;;;;;;;8.25;8.25;;;;;;;;5029510;28;10041;-84
2023/05/04 06:10:34;;;;;;;;;5.75;5.75;;;;;;;;5029075;28;10170;-80
2023/05/04 06:13:02;;;;;;;;;8.25;7.50;;;;;;;;5028628;28;10094;-80
2023/05/04 06:15:30;;;;;;;;;8.25;6.50;;;;;;;;5028707;28;9924;-79
2023/05/04 06:17:57;;;;;;;;;6.00;6.00;;;;;;;;5029275;28;9978;-79
2023/05/04 06:20:24;;;;;;;;;11.25;9.50;;;;;;;;5027299;28;9876;-81
2023/05/04 06:22:51;;;;;;;;;8.75;5.50;;;;;;;;5027602;28;10620;-82
2023/05/04 06:25:18;;;;;;;;;12.25;11.00;;;;;;;;5027577;28;9885;-82
2023/05/04 06:27:46;;;;;;;;;7.75;7.75;;;;;;;;5027807;28;10636;-82
2023/05/04 06:30:15;;;;;;;;;7.75;7.75;;;;;;;;5026582;28;9790;-80
2023/05/04 06:32:43;;;;;;;;;8.25;7.00;;;;;;;;5028303;28;9711;-79
2023/05/04 06:35:10;;;;;;;;;8.75;7.00;;;;;;;;5027691;28;9633;-79
2023/05/04 06:37:37;;;;;;;;;11.00;7.25;;;;;;;;5028755;28;9621;-80
2023/05/04 06:40:06;;;;;;;;;12.50;6.75;;;;;;;;5027804;28;10594;-81
2023/05/04 06:42:33;;;;;;;;;8.00;8.00;;;;;;;;5029431;28;9711;-80
2023/05/04 06:45:00;;;;;;;;;8.75;7.00;;;;;;;;5028678;28;9730;-79
2023/05/04 06:47:29;;;;;;;;;8.50;8.50;;;;;;;;5029011;28;9570;-81
2023/05/04 06:49:57;;;;;;;;;7.00;7.00;;;;;;;;5029075;28;9536;-82
2023/05/04 06:52:24;;;;;;;;;9.00;8.50;;;;;;;;5028660;28;9620;-83
2023/05/04 06:54:51;;;;;;;;;8.00;8.00;;;;;;;;5029222;28;10416;-82
2023/05/04 06:57:18;;;;;;;;;7.00;7.00;;;;;;;;5029387;28;9518;-82
2023/05/04 06:59:47;;;;;;;;;6.00;6.00;;;;;;;;5028530;28;9587;-79
2023/05/04 07:02:14;;;;;;;;;7.00;7.00;;;;;;;;5026987;28;9271;-83
2023/05/04 07:04:42;;;;;;;;;10.33;8.33;;;;;;;;5028952;28;9283;-79
2023/05/04 07:07:10;;;;;;;;;7.00;7.00;;;;;;;;5027845;28;9383;-81
2023/05/04 07:09:38;;;;;;;;;7.33;7.00;;;;;;;;5029780;28;9203;-82
2023/05/04 07:12:05;;;;;;;;;7.67;7.67;;;;;;;;5028014;28;9427;-82
2023/05/04 07:14:33;;;;;;;;;8.00;8.00;;;;;;;;5028458;28;9253;-79
2023/05/04 07:17:00;;;;;;;;;9.67;8.00;;;;;;;;5027889;28;9174;-76
2023/05/04 07:19:28;;;;;;;;;7.25;7.25;;;;;;;;5028161;28;9103;-78
2023/05/04 07:21:56;;;;;;;;;7.00;7.00;;;;;;;;5028720;28;9609;-81
2023/05/04 07:24:23;;;;;;;;;7.50;7.50;;;;;;;;5028477;28;8881;-79
2023/05/04 07:26:50;;;;;;;;;8.00;6.75;;;;;;;;5029134;28;9726;-80
2023/05/04 07:29:18;;;;;;;;;6.25;6.25;;;;;;;;5031058;28;8868;-80
2023/05/04 07:31:45;;;;;;;;;7.50;7.00;;;;;;;;5029004;28;8818;-82
2023/05/04 07:34:12;;;;;;;;;8.00;8.00;;;;;;;;5030090;28;8904;-83
2023/05/04 07:36:39;;;;;;;;;8.25;8.25;;;;;;;;5030633;28;8988;-83
2023/05/04 07:39:08;;;;;;;;;5.50;5.50;;;;;;;;5030556;28;8865;-83
2023/05/04 07:41:35;;;;;;;;;10.00;7.25;;;;;;;;5030335;28;8961;-80
2023/05/04 07:44:04;;;;;;;;;7.75;7.75;;;;;;;;5028492;28;9659;-81
2023/05/04 07:46:31;;;;;;;;;6.50;6.50;;;;;;;;5027925;28;8885;-82
2023/05/04 07:48:58;;;;;;;;;8.00;8.00;;;;;;;;5027075;28;8876;-79
2023/05/04 07:51:26;;;;;;;;;7.00;7.00;;;;;;;;5026706;28;8846;-78
2023/05/04 07:53:53;;;;;;;;;9.75;7.75;;;;;;;;5026600;28;8869;-78
2023/05/04 07:56:21;;;;;;;;;5.75;5.75;;;;;;;;5026603;28;9253;-78
2023/05/04 07:58:49;;;;;;;;;5.00;5.00;;;;;;;;5026361;28;9688;-81
2023/05/04 08:01:16;;;;;;;;;8.00;6.25;;;;;;;;5026207;28;8836;-78
2023/05/04 08:03:44;;;;;;;;;6.25;6.25;;;;;;;;5026558;28;9688;-79
2023/05/04 08:06:11;;;;;;;;;7.25;7.25;;;;;;;;5026787;28;8870;-80
2023/05/04 08:08:39;;;;;;;;;9.00;9.00;;;;;;;;5026710;28;9715;-80
2023/05/04 08:11:06;;;;;;;;;8.25;7.50;;;;;;;;5027017;28;8857;-81
2023/05/04 08:13:35;;;;;;;;;8.00;8.00;;;;;;;;5026342;28;8940;-80
2023/05/04 08:16:02;;;;;;;;;7.00;7.00;;;;;;;;5026167;28;9003;-79
2023/05/04 08:18:29;;;;;;;;;7.50;7.50;;;;;;;;5026819;28;8873;-83
2023/05/04 08:20:57;;;;;;;;;7.00;7.00;;;;;;;;5028407;28;8869;-80
2023/05/04 08:23:24;;;;;;;;;7.75;7.75;;;;;;;;5027455;28;8920;-81
2023/05/04 08:25:52;;;;;;;;;7.25;7.25;;;;;;;;5027224;28;8884;-78
2023/05/04 08:28:19;;;;;;;;;7.75;7.75;;;;;;;;5026136;28;8992;-79
2023/05/04 08:30:48;;;;;;;;;6.50;6.00;;;;;;;;5026067;28;8797;-79
2023/05/04 08:33:15;;;;;;;;;7.50;6.25;;;;;;;;5026368;28;8865;-82
2023/05/04 08:35:42;;;;;;;;;8.00;8.00;;;;;;;;5026861;28;8845;-81
2023/05/04 08:38:10;;;;;;;;;6.40;6.40;;;;;;;;5026704;28;8850;-82
2023/05/04 08:40:39;;;;;;;;;11.25;9.50;;;;;;;;5027747;28;9090;-81
2023/05/04 08:43:06;;;;;;;;;6.60;6.60;;;;;;;;5027339;28;8864;-79
2023/05/04 08:45:34;;;;;;;;;7.00;7.00;;;;;;;;5029979;28;8842;-82
2023/05/04 08:48:03;;;;;;;;;8.20;7.00;;;;;;;;5029599;28;8998;-82
2023/05/04 08:50:30;;;;;;;;;10.00;8.00;;;;;;;;5030703;28;8907;-82
2023/05/04 08:52:59;;;;;;;;;6.40;6.40;;;;;;;;5030091;28;8853;-82
2023/05/04 08:55:27;;;;;;;;;6.60;6.60;;;;;;;;5029998;28;8861;-83
2023/05/04 08:57:57;;;;;;;;;7.40;6.40;;;;;;;;5030409;28;8992;-81
2023/05/04 09:00:25;;;;;;;;;7.20;6.80;;;;;;;;5028010;28;8849;-79
2023/05/04 09:02:52;;;;;;;;;7.60;7.60;;;;;;;;5030682;28;9608;-81
2023/05/04 09:05:21;;;;;;;;;7.80;7.80;;;;;;;;5030072;28;9674;-83
2023/05/04 09:07:51;;;;;;;;;6.80;6.40;;;;;;;;5030519;28;9004;-82
2023/05/04 09:10:18;;;;;;;;;8.00;6.20;;;;;;;;5019859;28;8973;-79
2023/05/04 09:12:46;;;;;;;;;9.40;7.80;;;;;;;;5030245;28;8845;-82
2023/05/04 09:15:17;;;;;;;;;8.80;8.80;;;;;;;;5031455;28;8872;-82
2023/05/04 09:17:54;;;;;;;;;7.60;7.60;;;;;;;;5032578;28;8861;-82
2023/05/04 09:20:22;;;;;;;;;3.80;3.80;;;;;;;;5033207;28;8884;-84
2023/05/04 09:23:01;;;;;;;;;9.20;7.20;;;;;;;;5032908;28;8889;-83
2023/05/04 09:25:28;;;;;;;;;7.60;7.60;;;;;;;;5033485;28;8846;-82
2023/05/04 09:27:55;;;;;;;;;9.40;9.40;;;;;;;;5032485;28;8993;-82
2023/05/04 09:30:22;;;;;;;;;9.80;8.60;;;;;;;;5030631;28;8996;-80
2023/05/04 09:32:50;;;;;;;;;8.60;8.60;;;;;;;;5030589;28;8900;-79
2023/05/04 09:35:18;;;;;;;;;9.00;7.80;;;;;;;;5029514;28;8865;-82
2023/05/04 09:37:47;;;;;;;;;6.80;5.80;;;;;;;;5029630;28;8858;-83
2023/05/04 09:40:14;;;;;;;;;7.00;7.00;;;;;;;;5028167;28;8878;-81
2023/05/04 09:42:43;;;;;;;;;6.80;6.80;;;;;;;;5029002;28;9684;-80
2023/05/04 09:45:11;;;;;;;;;6.80;6.80;;;;;;;;5028299;28;8834;-79
2023/05/04 09:47:40;;;;;;;;;7.40;7.40;;;;;;;;5029349;28;8975;-79
2023/05/04 09:50:17;;;;;;;;;6.40;6.40;;;;;;;;5028778;28;8968;-80
2023/05/04 09:52:46;;;;;;;;;7.20;7.20;;;;;;;;5029843;28;8854;-81
2023/05/04 09:55:15;;;;;;;;;7.00;7.00;;;;;;;;5027199;28;8870;-80
2023/05/04 09:57:44;;;;;;;;;10.20;10.20;;;;;;;;5027405;28;8980;-79
2023/05/04 10:00:13;;;;;;;;;7.80;7.60;;;;;;;;5028760;28;8996;-82
2023/05/04 10:02:41;;;;;;;;;6.00;6.00;;;;;;;;5028661;28;8841;-78
2023/05/04 10:05:09;;;;;;;;;11.00;8.00;;;;;;;;5027985;28;9620;-80
2023/05/04 10:07:37;;;;;;;;;11.00;9.80;;;;;;;;5029846;28;8842;-82
2023/05/04 10:10:07;;;;;;;;;6.80;6.80;;;;;;;;5028734;28;8869;-78
2023/05/04 10:12:34;;;;;;;;;8.00;8.00;;;;;;;;5027737;28;9688;-79
2023/05/04 10:15:02;;;;;;;;;10.00;9.00;;;;;;;;5028785;28;8866;-85
2023/05/04 10:17:50;;;;;;;;;11.00;10.00;;;;;;;;5028270;28;8861;-79
2023/05/04 10:20:29;;;;;;;;;4.60;3.60;;;;;;;;5025119;28;8861;-78
2023/05/04 10:23:14;;;;;;;;;8.60;8.60;;;;;;;;5028166;28;8841;-77
2023/05/04 10:25:58;;;;;;;;;8.00;8.00;;;;;;;;5028569;28;8866;-81
2023/05/04 10:28:37;;;;;;;;;6.00;6.00;;;;;;;;5027839;28;8950;-82
2023/05/04 10:31:05;;;;;;;;;8.60;6.80;;;;;;;;5028489;28;8806;-80
2023/05/04 10:33:39;;;;;;;;;8.40;7.40;;;;;;;;5029536;28;9713;-81
2023/05/04 10:36:07;;;;;;;;;7.00;7.00;;;;;;;;5028394;28;8842;-80
2023/05/04 10:38:35;;;;;;;;;7.40;6.60;;;;;;;;5028560;28;8865;-79
2023/05/04 10:41:14;;;;;;;;;9.00;9.00;;;;;;;;5021723;28;8856;-81
2023/05/04 10:43:41;;;;;;;;;8.40;8.40;;;;;;;;5027779;28;8849;-81
2023/05/04 10:46:17;;;;;;;;;8.40;8.40;;;;;;;;5027844;28;8954;-78
2023/05/04 10:48:44;;;;;;;;;9.20;7.00;;;;;;;;5027648;28;8867;-80
2023/05/04 10:51:19;;;;;;;;;7.80;7.80;;;;;;;;5027764;28;8857;-83
2023/05/04 10:53:46;;;;;;;;;9.60;8.20;;;;;;;;5028297;28;8873;-82
2023/05/04 10:56:25;;;;;;;;;8.80;8.80;;;;;;;;5028004;28;8889;-85
2023/05/04 10:58:53;;;;;;;;;6.40;6.40;;;;;;;;5027671;28;8850;-83
2023/05/04 11:01:21;;;;;;;;;7.80;7.60;;;;;;;;5027745;28;8818;-82
2023/05/04 11:03:49;;;;;;;;;6.40;6.40;;;;;;;;5029175;28;8857;-85
2023/05/04 11:06:18;;;;;;;;;6.20;6.20;;;;;;;;5030296;28;9000;-79
2023/05/04 11:08:48;;;;;;;;;8.80;8.60;;;;;;;;5029612;28;8870;-85
2023/05/04 11:11:15;;;;;;;;;8.00;7.40;;;;;;;;5031256;28;8865;-85
2023/05/04 11:13:46;;;;;;;;;7.20;7.20;;;;;;;;5032369;28;8872;-86
2023/05/04 11:16:14;;;;;;;;;7.40;7.40;;;;;;;;5031191;28;8866;-87
2023/05/04 11:18:42;;;;;;;;;6.20;6.00;;;;;;;;5031226;28;8870;-82
2023/05/04 11:21:10;;;;;;;;;9.20;7.80;;;;;;;;5028492;28;8980;-81
2023/05/04 11:23:37;;;;;;;;;7.80;7.80;;;;;;;;5028639;28;8862;-83
2023/05/04 11:26:07;;;;;;;;;7.80;6.00;;;;;;;;5028227;28;8907;-83
2023/05/04 11:28:35;;;;;;;;;8.20;8.20;;;;;;;;5027525;28;8900;-87
2023/05/04 11:31:13;;;;;;;;;9.60;9.60;;;;;;;;5026491;28;8936;-83
2023/05/04 11:33:46;;;;;;;;;7.60;7.60;;;;;;;;5026895;28;8891;-80
2023/05/04 11:36:14;;;;;;;;;10.00;10.00;;;;;;;;5027334;28;8842;-83
2023/05/04 11:38:42;;;;;;;;;7.20;6.80;;;;;;;;5027812;28;8865;-80
2023/05/04 11:41:11;;;;;;;;;9.00;7.00;;;;;;;;5027832;28;8861;-84
2023/05/04 11:43:39;;;;;;;;;9.80;9.80;;;;;;;;5026915;28;9039;-77
2023/05/04 11:46:08;;;;;;;;;7.80;7.80;;;;;;;;5026496;28;8862;-78
2023/05/04 11:48:36;;;;;;;;;8.40;8.40;;;;;;;;5027070;28;9538;-83
2023/05/04 11:51:04;;;;;;;;;7.60;7.60;;;;;;;;5026910;28;8964;-81
2023/05/04 11:53:40;;;;;;;;;8.60;8.00;;;;;;;;5027435;28;8934;-80
2023/05/04 11:56:08;;;;;;;;;8.40;8.40;;;;;;;;5027258;28;8968;-82
2023/05/04 11:58:36;;;;;;;;;6.60;6.60;;;;;;;;5027156;28;8881;-81
2023/05/04 12:01:03;;;;;;;;;9.40;9.40;;;;;;;;5024940;28;8798;-80
2023/05/04 12:03:33;;;;;;;;;9.20;9.20;;;;;;;;5027280;28;8868;-84
2023/05/04 12:06:02;;;;;;;;;9.00;9.00;;;;;;;;5025961;28;8858;-81
2023/05/04 12:08:33;;;;;;;;;9.60;9.60;;;;;;;;5026979;28;8870;-81
2023/05/04 12:11:14;;;;;;;;;10.20;10.20;;;;;;;;5026366;28;8856;-79
2023/05/04 12:13:42;;;;;;;;;6.80;6.80;;;;;;;;5026767;28;9607;-80
2023/05/04 12:16:13;;;;;;;;;11.20;9.60;;;;;;;;5027491;28;8862;-82
2023/05/04 12:18:43;;;;;;;;;8.20;8.20;;;;;;;;5026503;28;9012;-81
2023/05/04 12:21:11;;;;;;;;;11.20;10.00;;;;;;;;5031193;28;8853;-83
2023/05/04 12:23:39;;;;;;;;;7.60;7.60;;;;;;;;5032331;28;8896;-82
2023/05/04 12:26:07;;;;;;;;;7.40;7.40;;;;;;;;5031185;28;8911;-83
2023/05/04 12:28:34;;;;;;;;;8.40;8.40;;;;;;;;5030077;28;9000;-84
2023/05/04 12:31:03;;;;;;;;;9.80;8.60;;;;;;;;5030461;28;8801;-83
2023/05/04 12:33:30;;;;;;;;;9.80;9.80;;;;;;;;5030485;28;8980;-83
2023/05/04 12:36:00;;;;;;;;;10.40;9.00;;;;;;;;5030158;28;8850;-82
2023/05/04 12:38:27;;;;;;;;;8.00;8.00;;;;;;;;5029559;28;9631;-85
2023/05/04 12:40:54;;;;;;;;;8.40;8.40;;;;;;;;5030649;28;8888;-83
2023/05/04 12:43:22;;;;;;;;;8.80;8.80;;;;;;;;5030488;28;8888;-82
2023/05/04 12:45:50;;;;;;;;;9.60;9.60;;;;;;;;5029757;28;8854;-82
2023/05/04 12:48:19;;;;;;;;;8.60;8.60;;;;;;;;5030757;28;9609;-85
2023/05/04 12:50:47;;;;;;;;;9.60;8.00;;;;;;;;5031447;28;8942;-84
2023/05/04 12:53:16;;;;;;;;;10.00;8.80;;;;;;;;5031856;28;8950;-82
2023/05/04 12:55:43;;;;;;;;;9.20;8.20;;;;;;;;5033625;28;8849;-80
2023/05/04 12:58:10;;;;;;;;;8.00;8.00;;;;;;;;5035029;28;8952;-84
2023/05/04 13:00:39;;;;;;;;;9.40;7.40;;;;;;;;5033915;28;8802;-84
2023/05/04 13:03:06;;;;;;;;;9.20;9.20;;;;;;;;5033358;28;8951;-84
2023/05/04 13:05:33;;;;;;;;;7.20;7.20;;;;;;;;5032739;28;8883;-84
2023/05/04 13:08:01;;;;;;;;;8.60;8.00;;;;;;;;5031227;28;9068;-80
2023/05/04 13:10:30;;;;;;;;;7.00;7.00;;;;;;;;5030623;28;8857;-81
2023/05/04 13:12:57;;;;;;;;;9.00;9.00;;;;;;;;5030656;28;8853;-80
2023/05/04 13:15:24;;;;;;;;;8.60;8.60;;;;;;;;5029820;28;8999;-82
2023/05/04 13:17:53;;;;;;;;;8.80;8.00;;;;;;;;5029954;28;8964;-81
2023/05/04 13:20:20;;;;;;;;;8.00;8.00;;;;;;;;5029928;28;8874;-83
2023/05/04 13:22:47;;;;;;;;;7.20;7.20;;;;;;;;5030419;28;8850;-82
2023/05/04 13:25:15;;;;;;;;;9.20;8.60;;;;;;;;5030115;28;8842;-83
2023/05/04 13:27:43;;;;;;;;;8.60;7.60;;;;;;;;5030013;28;8954;-82
2023/05/04 13:30:12;;;;;;;;;2.20;2.20;;;;;;;;5029704;28;8866;-80
2023/05/04 13:32:39;;;;;;;;;9.00;9.00;;;;;;;;5029049;28;8835;-82
2023/05/04 13:35:07;;;;;;;;;11.80;9.00;;;;;;;;5030059;28;8842;-79
2023/05/04 13:37:36;;;;;;;;;8.20;8.20;;;;;;;;5029627;28;8850;-83
2023/05/04 13:40:04;;;;;;;;;8.00;8.00;;;;;;;;5029658;28;8904;-84
2023/05/04 13:42:32;;;;;;;;;9.00;9.00;;;;;;;;5029692;28;8831;-83
2023/05/04 13:45:00;;;;;;;;;7.00;7.00;;;;;;;;5029257;28;8937;-81
2023/05/04 13:47:28;;;;;;;;;6.40;6.40;;;;;;;;5029551;28;8850;-82
2023/05/04 13:49:55;;;;;;;;;13.00;11.20;;;;;;;;5029346;28;8961;-90
2023/05/04 13:52:22;;;;;;;;;7.40;7.40;;;;;;;;5022838;28;8851;-81
2023/05/04 13:54:50;;;;;;;;;11.20;9.00;;;;;;;;5022735;28;9045;-79
2023/05/04 13:57:17;;;;;;;;;9.60;9.60;;;;;;;;5022650;28;8965;-80
2023/05/04 13:59:44;;;;;;;;;6.20;6.20;;;;;;;;5029178;28;8969;-79
2023/05/04 14:02:13;;;;;;;;;7.00;7.00;;;;;;;;5028452;28;8797;-77
2023/05/04 14:04:41;;;;;;;;;7.00;7.00;;;;;;;;5029607;28;8876;-79
2023/05/04 14:07:08;;;;;;;;;7.00;7.00;;;;;;;;5027427;28;8988;-85
2023/05/04 14:09:36;;;;;;;;;7.40;6.20;;;;;;;;5029382;28;8834;-80
2023/05/04 14:12:03;;;;;;;;;6.80;6.80;;;;;;;;5027547;28;8960;-79
2023/05/04 14:14:30;;;;;;;;;7.80;6.20;;;;;;;;5028628;28;8988;-81
2023/05/04 14:16:57;;;;;;;;;7.80;7.80;;;;;;;;5028822;28;8996;-85
2023/05/04 14:19:26;;;;;;;;;7.00;7.00;;;;;;;;5029018;28;8858;-81
2023/05/04 14:21:53;;;;;;;;;8.00;6.60;;;;;;;;5028541;28;8854;-83
2023/05/04 14:24:22;;;;;;;;;5.20;5.20;;;;;;;;5029692;28;8896;-84
2023/05/04 14:26:51;;;;;;;;;6.40;6.40;;;;;;;;5028538;28;8850;-81
2023/05/04 14:29:18;;;;;;;;;6.60;6.60;;;;;;;;5032143;28;8859;-79
2023/05/04 14:31:45;;;;;;;;;8.00;6.80;;;;;;;;5029184;28;8993;-84
2023/05/04 14:34:12;;;;;;;;;8.40;5.80;;;;;;;;5029122;28;8826;-83
2023/05/04 14:36:41;;;;;;;;;5.60;5.60;;;;;;;;5028501;28;8879;-87
2023/05/04 14:39:08;;;;;;;;;3.80;3.80;;;;;;;;5029328;28;8878;-84
2023/05/04 14:41:36;;;;;;;;;7.80;7.80;;;;;;;;5030421;28;9632;-88
2023/05/04 14:44:04;;;;;;;;;7.20;7.20;;;;;;;;5030817;28;8844;-87
2023/05/04 14:46:31;;;;;;;;;6.40;6.40;;;;;;;;5030497;28;8849;-89
2023/05/04 14:48:59;;;;;;;;;7.60;7.60;;;;;;;;5030885;28;8867;-86
2023/05/04 14:51:26;;;;;;;;;6.60;6.60;;;;;;;;5028972;28;9008;-80
2023/05/04 14:53:55;;;;;;;;;8.00;8.00;;;;;;;;5029179;28;8850;-86
2023/05/04 14:56:23;;;;;;;;;6.80;6.80;;;;;;;;5016502;28;8899;-83
2023/05/04 14:58:50;;;;;;;;;5.60;5.60;;;;;;;;5029454;28;8854;-83